createdAt,value
2022-10-05T00:01:21.439Z,6.03
2022-10-05T00:03:50.477Z,5.87
2022-10-05T00:06:19.175Z,6.50
2022-10-05T00:08:48.175Z,6.23
2022-10-05T00:11:18.821Z,6.10
2022-10-05T00:13:48.879Z,6.03
2022-10-05T00:16:19.726Z,6.70
2022-10-05T00:18:50.940Z,6.27
2022-10-05T00:21:25.476Z,6.33
2022-10-05T00:23:57.868Z,6.33
2022-10-05T00:26:28.654Z,5.80
2022-10-05T00:28:58.475Z,6.07
2022-10-05T00:31:29.134Z,6.93
2022-10-05T00:33:58.668Z,7.47
2022-10-05T00:36:27.443Z,6.27
2022-10-05T00:38:56.437Z,6.67
2022-10-05T00:41:29.039Z,6.80
2022-10-05T00:44:14.952Z,6.13
2022-10-05T00:46:54.038Z,5.70
2022-10-05T00:49:31.090Z,6.43
2022-10-05T00:52:08.399Z,6.27
2022-10-05T00:54:43.665Z,6.00
2022-10-05T00:57:27.087Z,5.33
2022-10-05T01:00:06.057Z,6.03
2022-10-05T01:02:41.886Z,5.53
2022-10-05T01:05:15.685Z,5.97
2022-10-05T01:07:54.348Z,6.20
2022-10-05T01:10:30.838Z,6.30
2022-10-05T01:13:05.379Z,6.87
2022-10-05T01:15:40.449Z,6.57
2022-10-05T01:18:16.451Z,5.90
2022-10-05T01:20:53.421Z,6.10
2022-10-05T01:24:09.542Z,6.27
2022-10-05T01:27:00.867Z,6.93
2022-10-05T01:29:34.974Z,5.70
2022-10-05T01:32:09.640Z,6.03
2022-10-05T01:34:42.549Z,6.13
2022-10-05T01:37:19.771Z,5.73
2022-10-05T01:39:54.188Z,6.03
2022-10-05T01:42:28.838Z,6.27
2022-10-05T01:45:05.654Z,6.13
2022-10-05T01:47:41.903Z,6.10
2022-10-05T01:50:19.005Z,5.60
2022-10-05T01:52:54.569Z,6.63
2022-10-05T01:55:33.784Z,6.00
2022-10-05T01:58:16.446Z,5.83
2022-10-05T02:00:53.355Z,6.50
2022-10-05T02:03:25.367Z,6.23
2022-10-05T02:05:56.692Z,5.90
2022-10-05T02:08:31.306Z,5.97
2022-10-05T02:11:03.726Z,6.13
2022-10-05T02:13:36.567Z,6.00
2022-10-05T02:16:10.917Z,7.03
2022-10-05T02:18:43.748Z,6.00
2022-10-05T02:21:12.368Z,5.77
2022-10-05T02:23:42.475Z,6.50
2022-10-05T02:26:12.837Z,5.83
2022-10-05T02:28:45.505Z,5.90
2022-10-05T02:31:17.945Z,6.23
2022-10-05T02:33:49.332Z,6.63
2022-10-05T02:36:24.579Z,7.07
2022-10-05T02:39:00.472Z,6.70
2022-10-05T02:41:38.716Z,5.43
2022-10-05T02:44:12.299Z,6.50
2022-10-05T02:46:46.877Z,5.53
2022-10-05T02:49:22.236Z,6.13
2022-10-05T02:51:56.129Z,5.60
2022-10-05T02:54:39.670Z,6.07
2022-10-05T02:57:13.931Z,5.97
2022-10-05T02:59:46.026Z,6.40
2022-10-05T03:02:19.795Z,5.97
2022-10-05T03:04:56.508Z,6.07
2022-10-05T03:07:28.869Z,6.03
2022-10-05T03:10:03.161Z,5.83
2022-10-05T03:12:45.534Z,6.83
2022-10-05T03:15:25.783Z,6.40
2022-10-05T03:18:01.184Z,6.93
2022-10-05T03:20:37.884Z,5.80
2022-10-05T03:23:09.552Z,5.40
2022-10-05T03:25:52.271Z,7.17
2022-10-05T03:28:25.106Z,6.67
2022-10-05T03:31:01.837Z,6.20
2022-10-05T03:33:42.210Z,6.23
2022-10-05T03:36:20.037Z,7.17
2022-10-05T03:38:55.058Z,6.57
2022-10-05T03:41:30.138Z,5.90
2022-10-05T03:44:11.274Z,6.70
2022-10-05T03:46:58.313Z,6.30
2022-10-05T03:49:40.494Z,7.27
2022-10-05T03:52:12.750Z,6.13
2022-10-05T03:54:44.615Z,6.13
2022-10-05T03:57:17.887Z,5.80
2022-10-05T03:59:53.122Z,6.53
2022-10-05T04:02:26.515Z,6.33
2022-10-05T04:05:01.670Z,6.57
2022-10-05T04:07:39.483Z,6.30
2022-10-05T04:10:14.755Z,6.63
2022-10-05T04:12:48.037Z,6.57
2022-10-05T04:15:20.819Z,6.57
2022-10-05T04:17:52.194Z,7.47
2022-10-05T04:20:26.785Z,7.60
2022-10-05T04:23:01.934Z,6.70
2022-10-05T04:25:33.563Z,6.20
2022-10-05T04:28:06.907Z,6.77
2022-10-05T04:30:36.587Z,7.43
2022-10-05T04:33:11.743Z,6.60
2022-10-05T04:35:58.903Z,6.63
2022-10-05T04:38:37.724Z,6.60
2022-10-05T04:41:42.290Z,6.57
2022-10-05T04:44:24.903Z,6.97
2022-10-05T04:47:05.482Z,7.00
2022-10-05T04:49:57.543Z,6.00
2022-10-05T04:52:32.876Z,6.23
2022-10-05T04:55:10.696Z,6.33
2022-10-05T04:57:43.458Z,6.13
2022-10-05T05:00:23.193Z,6.60
2022-10-05T05:03:19.659Z,6.67
2022-10-05T05:06:15.985Z,6.50
2022-10-05T05:09:10.316Z,6.27
2022-10-05T05:11:46.625Z,6.50
2022-10-05T05:14:26.800Z,7.03
2022-10-05T05:17:06.046Z,5.93
2022-10-05T05:19:43.350Z,5.73
2022-10-05T05:22:18.819Z,6.67
2022-10-05T05:24:57.162Z,6.40
2022-10-05T05:27:42.466Z,6.73
2022-10-05T05:30:21.713Z,6.00
2022-10-05T05:33:15.745Z,8.03
2022-10-05T05:36:20.749Z,6.50
2022-10-05T05:39:05.312Z,5.83
2022-10-05T05:41:40.845Z,6.33
2022-10-05T05:44:20.693Z,5.50
2022-10-05T05:47:04.344Z,5.37
2022-10-05T05:49:57.208Z,6.30
2022-10-05T05:52:30.533Z,6.00
2022-10-05T05:55:03.610Z,6.43
2022-10-05T05:57:39.025Z,6.93
2022-10-05T06:00:11.762Z,8.33
2022-10-05T06:02:52.706Z,9.37
2022-10-05T06:05:30.582Z,10.13
2022-10-05T06:08:02.962Z,7.03
2022-10-05T06:10:41.544Z,7.90
2022-10-05T06:13:18.523Z,7.63
2022-10-05T06:15:52.174Z,7.33
2022-10-05T06:18:22.476Z,7.87
2022-10-05T06:20:57.692Z,6.33
2022-10-05T06:23:31.773Z,7.00
2022-10-05T06:26:11.110Z,6.47
2022-10-05T06:28:44.588Z,6.33
2022-10-05T06:31:22.808Z,5.77
2022-10-05T06:33:59.697Z,7.00
2022-10-05T06:36:42.241Z,6.33
2022-10-05T06:39:33.690Z,6.03
2022-10-05T06:42:24.313Z,6.30
2022-10-05T06:45:22.254Z,6.17
2022-10-05T06:48:09.889Z,5.93
2022-10-05T06:50:59.653Z,5.80
2022-10-05T06:53:36.756Z,5.40
2022-10-05T06:56:09.232Z,6.60
2022-10-05T06:58:47.712Z,6.40
2022-10-05T07:01:28.196Z,6.37
2022-10-05T07:04:17.569Z,5.10
2022-10-05T07:06:50.540Z,5.00
2022-10-05T07:09:28.980Z,4.87
2022-10-05T07:12:18.475Z,6.07
2022-10-05T07:14:58.105Z,5.97
2022-10-05T07:17:42.804Z,5.43
2022-10-05T07:20:17.572Z,5.47
2022-10-05T07:22:58.513Z,6.07
2022-10-05T07:25:32.689Z,6.07
2022-10-05T07:28:07.061Z,5.90
2022-10-05T07:30:42.814Z,6.00
2022-10-05T07:33:18.384Z,5.83
2022-10-05T07:36:10.068Z,6.00
2022-10-05T07:38:42.471Z,5.90
2022-10-05T07:41:15.921Z,5.77
2022-10-05T07:44:02.104Z,6.10
2022-10-05T07:46:45.109Z,5.83
2022-10-05T07:49:23.386Z,5.63
2022-10-05T07:51:55.588Z,5.47
2022-10-05T07:54:30.600Z,6.00
2022-10-05T07:57:05.704Z,6.20
2022-10-05T07:59:39.907Z,5.23
2022-10-05T08:02:16.348Z,5.40
2022-10-05T08:04:54.202Z,5.87
2022-10-05T08:09:56.310Z,11.07
2022-10-05T08:12:33.575Z,6.50
2022-10-05T08:15:06.000Z,5.27
2022-10-05T08:17:41.753Z,5.17
2022-10-05T08:20:33.345Z,5.57
2022-10-05T08:23:07.443Z,5.77
2022-10-05T08:25:50.648Z,5.33
2022-10-05T08:28:24.134Z,6.10
2022-10-05T08:30:57.408Z,5.13
2022-10-05T08:33:27.754Z,5.13
2022-10-05T08:36:06.012Z,5.27
2022-10-05T08:38:35.817Z,5.67
2022-10-05T08:41:26.740Z,6.30
2022-10-05T08:44:39.729Z,5.83
2022-10-05T08:47:19.701Z,6.70
2022-10-05T08:50:02.938Z,7.80
2022-10-05T08:52:36.818Z,6.83
2022-10-05T08:55:37.972Z,6.20
2022-10-05T08:58:31.859Z,6.43
2022-10-05T09:01:08.344Z,6.13
2022-10-05T09:03:50.383Z,5.93
2022-10-05T09:06:29.415Z,5.63
2022-10-05T09:09:41.007Z,5.80
2022-10-05T09:12:44.684Z,5.50
2022-10-05T09:15:42.852Z,6.40
2022-10-05T09:18:40.672Z,5.40
2022-10-05T09:21:15.650Z,6.23
2022-10-05T09:23:46.826Z,6.63
2022-10-05T09:26:43.820Z,5.63
2022-10-05T09:29:34.364Z,5.93
2022-10-05T09:32:23.959Z,5.60
2022-10-05T09:35:08.647Z,4.83
2022-10-05T09:38:04.733Z,5.47
2022-10-05T09:41:01.116Z,5.00
2022-10-05T09:43:56.503Z,4.97
2022-10-05T09:47:08.418Z,5.40
2022-10-05T09:49:52.689Z,4.53
2022-10-05T09:52:47.066Z,5.80
2022-10-05T09:56:03.943Z,5.20
2022-10-05T09:58:53.128Z,5.13
2022-10-05T10:01:36.156Z,4.50
2022-10-05T10:04:34.313Z,4.47
2022-10-05T10:07:50.864Z,4.60
2022-10-05T10:10:48.258Z,6.57
2022-10-05T10:13:39.369Z,9.57
2022-10-05T10:16:18.934Z,7.23
2022-10-05T10:19:14.523Z,6.10
2022-10-05T10:22:02.371Z,5.40
2022-10-05T10:24:52.713Z,6.03
2022-10-05T10:27:37.726Z,9.97
2022-10-05T10:30:36.380Z,6.57
2022-10-05T10:33:40.538Z,7.87
2022-10-05T10:36:13.802Z,5.07
2022-10-05T10:38:55.628Z,6.63
2022-10-05T10:42:03.454Z,5.80
2022-10-05T10:45:08.989Z,5.63
2022-10-05T10:47:45.717Z,4.47
2022-10-05T10:50:34.427Z,5.17
2022-10-05T10:53:36.830Z,4.70
2022-10-05T10:56:28.070Z,5.13
2022-10-05T10:59:31.695Z,4.63
2022-10-05T11:02:16.972Z,4.90
2022-10-05T11:05:15.639Z,5.07
2022-10-05T11:07:59.819Z,4.63
2022-10-05T11:10:53.039Z,4.70
2022-10-05T11:13:44.511Z,4.50
2022-10-05T11:16:31.411Z,4.73
2022-10-05T11:19:35.024Z,4.77
2022-10-05T11:22:20.104Z,4.87
2022-10-05T11:25:03.535Z,4.77
2022-10-05T11:39:46.297Z,4.20
2022-10-05T11:42:33.457Z,3.87
2022-10-05T11:45:27.556Z,3.23
2022-10-05T11:48:29.217Z,3.50
2022-10-05T11:51:36.079Z,3.40
2022-10-05T11:54:20.083Z,4.00
2022-10-05T11:56:54.731Z,3.40
2022-10-05T11:59:30.755Z,3.53
2022-10-05T12:02:05.935Z,3.53
2022-10-05T12:04:41.360Z,3.50
2022-10-05T12:07:18.421Z,3.27
2022-10-05T12:10:20.193Z,3.70
2022-10-05T12:13:22.324Z,3.73
2022-10-05T12:15:55.718Z,3.40
2022-10-05T12:18:42.250Z,3.90
2022-10-05T12:21:19.299Z,3.97
2022-10-05T12:23:53.216Z,3.47
2022-10-05T12:26:25.900Z,4.63
2022-10-05T12:29:02.103Z,5.57
2022-10-05T12:31:37.706Z,4.30
2022-10-05T12:34:13.430Z,3.43
2022-10-05T12:37:03.577Z,3.50
2022-10-05T12:39:40.970Z,3.20
2022-10-05T12:42:17.659Z,3.10
2022-10-05T12:45:16.674Z,3.17
2022-10-05T12:47:56.176Z,3.23
2022-10-05T12:50:28.636Z,3.47
2022-10-05T12:53:09.361Z,3.17
2022-10-05T12:55:42.292Z,3.30
2022-10-05T12:58:24.933Z,3.10
2022-10-05T13:00:59.259Z,3.10
2022-10-05T13:03:31.562Z,3.20
2022-10-05T13:06:10.380Z,3.57
2022-10-05T13:08:45.295Z,3.43
2022-10-05T13:11:17.009Z,3.17
2022-10-05T13:13:54.439Z,3.53
2022-10-05T13:16:32.150Z,3.67
2022-10-05T13:19:24.493Z,4.27
2022-10-05T13:22:05.812Z,4.17
2022-10-05T13:24:40.258Z,3.20
2022-10-05T13:27:15.346Z,3.73
2022-10-05T13:29:51.068Z,3.77
2022-10-05T13:32:27.306Z,3.53
2022-10-05T13:35:02.647Z,3.50
2022-10-05T13:37:35.442Z,3.97
2022-10-05T13:40:19.111Z,3.87
2022-10-05T13:42:52.709Z,3.97
2022-10-05T13:45:22.841Z,3.53
2022-10-05T13:48:08.490Z,3.67
2022-10-05T13:50:42.313Z,3.43
2022-10-05T13:53:21.586Z,3.70
2022-10-05T13:55:54.977Z,3.40
2022-10-05T13:58:32.543Z,3.40
2022-10-05T14:01:04.038Z,3.60
2022-10-05T14:03:36.077Z,4.20
2022-10-05T14:06:12.133Z,3.97
2022-10-05T14:08:49.859Z,3.10
2022-10-05T14:11:23.461Z,3.47
2022-10-05T14:13:53.135Z,3.10
2022-10-05T14:16:25.006Z,4.13
2022-10-05T14:19:00.028Z,4.00
2022-10-05T14:21:31.403Z,3.17
2022-10-05T14:24:32.033Z,3.33
2022-10-05T14:27:21.209Z,3.67
2022-10-05T14:29:57.924Z,3.40
2022-10-05T14:32:28.449Z,3.80
2022-10-05T14:35:07.182Z,3.67
2022-10-05T14:37:48.004Z,3.50
2022-10-05T14:40:26.684Z,3.70
2022-10-05T14:42:55.792Z,3.60
2022-10-05T14:45:26.174Z,3.37
2022-10-05T14:48:00.280Z,3.63
2022-10-05T14:50:31.316Z,3.60
2022-10-05T14:53:16.815Z,4.07
2022-10-05T14:56:19.500Z,3.80
2022-10-05T14:59:05.341Z,3.70
2022-10-05T15:01:36.788Z,3.87
2022-10-05T15:04:20.544Z,4.23
2022-10-05T15:06:59.507Z,4.60
2022-10-05T15:09:47.422Z,5.23
2022-10-05T15:12:22.387Z,4.40
2022-10-05T15:14:52.690Z,4.30
2022-10-05T15:17:26.357Z,4.00
2022-10-05T15:20:01.825Z,5.93
2022-10-05T15:22:39.671Z,7.83
2022-10-05T15:25:15.739Z,6.50
2022-10-05T15:28:10.066Z,7.03
2022-10-05T15:30:42.261Z,4.43
2022-10-05T15:33:18.373Z,4.43
2022-10-05T15:36:12.356Z,4.67
2022-10-05T15:38:52.001Z,6.67
2022-10-05T15:41:24.371Z,5.73
2022-10-05T15:44:06.427Z,6.07
2022-10-05T15:46:41.521Z,4.23
2022-10-05T15:49:26.311Z,4.03
2022-10-05T15:52:02.045Z,3.80
2022-10-05T15:54:53.429Z,3.70
2022-10-05T15:57:25.908Z,4.50
2022-10-05T16:00:01.875Z,4.30
2022-10-05T16:02:41.939Z,3.90
2022-10-05T16:05:47.989Z,4.40
2022-10-05T16:08:44.954Z,4.03
2022-10-05T16:11:19.208Z,4.53
2022-10-05T16:13:53.369Z,4.80
2022-10-05T16:16:26.274Z,4.20
2022-10-05T16:19:03.738Z,3.60
2022-10-05T16:21:41.468Z,6.37
2022-10-05T16:24:19.128Z,6.83
2022-10-05T16:26:59.051Z,4.63
2022-10-05T16:29:36.381Z,3.93
2022-10-05T16:32:08.295Z,4.73
2022-10-05T16:34:51.108Z,4.10
2022-10-05T16:37:28.740Z,4.00
2022-10-05T16:40:00.409Z,4.40
2022-10-05T16:42:42.217Z,4.80
2022-10-05T16:45:23.292Z,4.93
2022-10-05T16:47:58.580Z,4.33
2022-10-05T16:50:31.797Z,5.37
2022-10-05T16:53:04.986Z,4.80
2022-10-05T16:55:37.300Z,4.97
2022-10-05T16:58:15.247Z,5.40
2022-10-05T17:01:06.044Z,5.40
2022-10-05T17:03:41.114Z,5.00
2022-10-05T17:06:29.316Z,5.40
2022-10-05T17:09:13.527Z,5.10
2022-10-05T17:11:57.535Z,5.03
2022-10-05T17:14:35.565Z,5.70
2022-10-05T17:17:41.445Z,5.03
2022-10-05T17:20:32.374Z,4.77
2022-10-05T17:23:08.159Z,4.87
2022-10-05T17:25:43.095Z,4.53
2022-10-05T17:28:24.154Z,4.87
2022-10-05T17:31:10.368Z,4.90
2022-10-05T17:34:10.707Z,4.63
2022-10-05T17:36:45.794Z,4.53
2022-10-05T17:39:17.146Z,5.13
2022-10-05T17:41:46.304Z,4.73
2022-10-05T17:44:21.490Z,4.83
2022-10-05T17:46:52.945Z,4.47
2022-10-05T17:50:13.653Z,5.00
2022-10-05T17:53:02.414Z,4.23
2022-10-05T17:55:49.601Z,4.30
2022-10-05T17:59:01.464Z,4.47
2022-10-05T18:01:38.341Z,4.43
2022-10-05T18:04:45.013Z,4.33
2022-10-05T18:07:21.066Z,4.93
2022-10-05T18:10:24.696Z,4.90
2022-10-05T18:13:15.740Z,9.47
2022-10-05T18:15:48.897Z,12.27
2022-10-05T18:18:56.017Z,5.67
2022-10-05T18:21:35.780Z,6.30
2022-10-05T18:24:30.009Z,5.27
2022-10-05T18:27:13.208Z,4.73
2022-10-05T18:30:05.673Z,4.83
2022-10-05T18:32:56.346Z,4.60
2022-10-05T18:35:29.609Z,5.03
2022-10-05T18:38:06.898Z,5.10
2022-10-05T18:40:43.780Z,5.57
2022-10-05T18:43:26.654Z,4.33
2022-10-05T18:46:22.062Z,4.33
2022-10-05T18:49:01.121Z,5.10
2022-10-05T18:51:39.425Z,4.83
2022-10-05T18:54:18.394Z,5.13
2022-10-05T18:56:51.172Z,4.53
2022-10-05T18:59:33.751Z,4.73
2022-10-05T19:02:12.578Z,4.90
2022-10-05T19:04:50.801Z,4.83
2022-10-05T19:07:29.136Z,4.97
2022-10-05T19:10:06.541Z,4.70
2022-10-05T19:12:46.654Z,5.40
2022-10-05T19:15:20.671Z,5.03
2022-10-05T19:18:11.293Z,4.73
2022-10-05T19:20:46.615Z,4.70
2022-10-05T19:23:31.374Z,4.60
2022-10-05T19:26:11.987Z,5.00
2022-10-05T19:28:45.372Z,5.13
2022-10-05T19:31:30.406Z,4.73
2022-10-05T19:34:16.597Z,4.10
2022-10-05T19:36:54.659Z,5.07
2022-10-05T19:39:32.179Z,5.27
2022-10-05T19:42:17.807Z,5.03
2022-10-05T19:44:56.892Z,4.70
2022-10-05T19:47:38.875Z,5.40
2022-10-05T19:50:22.416Z,4.43
2022-10-05T19:52:53.084Z,4.70
2022-10-05T19:55:27.702Z,4.70
2022-10-05T19:58:01.365Z,5.03
2022-10-05T20:00:32.387Z,4.97
2022-10-05T20:03:13.393Z,4.73
2022-10-05T20:05:42.413Z,4.60
2022-10-05T20:08:17.060Z,4.90
2022-10-05T20:10:46.947Z,5.37
2022-10-05T20:13:24.343Z,4.77
2022-10-05T20:16:40.945Z,4.73
2022-10-05T20:19:51.129Z,4.93
2022-10-05T20:22:30.026Z,4.83
2022-10-05T20:25:01.286Z,5.03
2022-10-05T20:27:37.418Z,5.00
2022-10-05T20:30:09.451Z,4.93
2022-10-05T20:32:38.881Z,4.80
2022-10-05T20:35:09.714Z,4.67
2022-10-05T20:37:38.609Z,4.20
2022-10-05T20:40:10.439Z,4.83
2022-10-05T20:42:39.327Z,4.63
2022-10-05T20:45:11.049Z,4.93
2022-10-05T20:47:40.524Z,4.50
2022-10-05T20:50:10.614Z,4.07
2022-10-05T20:52:39.710Z,4.73
2022-10-05T20:55:10.445Z,4.40
2022-10-05T20:57:42.437Z,4.33
2022-10-05T21:00:14.372Z,4.23
2022-10-05T21:02:43.764Z,4.20
2022-10-05T21:05:13.000Z,4.60
2022-10-05T21:07:42.265Z,4.40
2022-10-05T21:10:11.403Z,4.80
2022-10-05T21:12:41.280Z,4.53
2022-10-05T21:15:12.823Z,4.27
2022-10-05T21:17:41.368Z,4.83
2022-10-05T21:20:11.365Z,4.50
2022-10-05T21:22:41.549Z,5.23
2022-10-05T21:25:10.870Z,5.00
2022-10-05T21:27:39.763Z,4.60
2022-10-05T21:30:10.706Z,5.17
2022-10-05T21:32:44.405Z,4.97
2022-10-05T21:35:13.992Z,5.13
2022-10-05T21:37:43.142Z,4.80
2022-10-05T21:40:12.693Z,5.70
2022-10-05T21:42:41.650Z,5.27
2022-10-05T21:45:11.663Z,5.53
2022-10-05T21:47:42.551Z,5.33
2022-10-05T21:50:12.136Z,4.73
2022-10-05T21:52:41.107Z,4.73
2022-10-05T21:55:10.239Z,4.30
2022-10-05T21:57:41.533Z,5.03
2022-10-05T22:00:12.002Z,4.40
2022-10-05T22:02:42.162Z,4.50
2022-10-05T22:05:11.052Z,4.53
2022-10-05T22:07:40.564Z,4.40
2022-10-05T22:10:09.822Z,4.40
2022-10-05T22:12:38.970Z,5.00
2022-10-05T22:15:08.623Z,4.70
2022-10-05T22:17:37.482Z,3.80
2022-10-05T22:20:08.798Z,3.93
2022-10-05T22:22:37.447Z,4.20
2022-10-05T22:25:07.098Z,3.93
2022-10-05T22:27:36.535Z,4.20
2022-10-05T22:30:06.615Z,3.90
2022-10-05T22:32:35.279Z,3.70
2022-10-05T22:35:06.818Z,4.10
2022-10-05T22:37:40.872Z,3.70
2022-10-05T22:40:11.311Z,4.20
2022-10-05T22:42:40.725Z,3.97
2022-10-05T22:45:09.994Z,3.90
2022-10-05T22:47:39.148Z,4.03
2022-10-05T22:50:09.545Z,3.73
2022-10-05T22:52:38.522Z,4.27
2022-10-05T22:55:10.293Z,4.13
2022-10-05T22:57:39.949Z,3.67
2022-10-05T23:00:10.343Z,4.00
2022-10-05T23:02:40.008Z,3.90
2022-10-05T23:05:10.137Z,3.57
2022-10-05T23:07:38.901Z,4.20
2022-10-05T23:10:12.366Z,3.70
2022-10-05T23:12:41.282Z,4.00
2022-10-05T23:15:11.322Z,3.43
2022-10-05T23:17:41.059Z,4.00
2022-10-05T23:20:10.537Z,3.50
2022-10-05T23:22:39.406Z,3.83
2022-10-05T23:25:10.488Z,3.97
2022-10-05T23:27:39.805Z,3.30
2022-10-05T23:30:10.120Z,3.80
2022-10-05T23:32:40.270Z,3.57
2022-10-05T23:35:10.154Z,3.20
2022-10-05T23:37:40.057Z,4.17
2022-10-05T23:40:13.024Z,3.93
2022-10-05T23:42:42.561Z,3.40
2022-10-05T23:45:12.703Z,3.30
2022-10-05T23:47:41.815Z,3.37
2022-10-05T23:50:11.565Z,3.63
2022-10-05T23:52:41.089Z,2.87
2022-10-05T23:55:12.725Z,3.00
2022-10-05T23:57:41.940Z,3.30
